Time;durP1;ratioP1;P1;durP2;ratioP2;P2;SDS_P1;SDS_P2;PMS_P1;PMS_P2;Temp;Humidity;BMP_temperature;BMP_pressure;BME280_temperature;BME280_humidity;BME280_pressure;Samples;Min_cycle;Max_cycle;Signal;HPM_P1;HPM_P2
2023/08/29 00:01:10;;;;;;;1.80;1.30;;;;;;;13.09;100.00;99873.62;105472;1254;69176;-66
2023/08/29 00:03:37;;;;;;;4.00;1.90;;;;;;;13.11;100.00;99873.27;105523;1257;69175;-67
2023/08/29 00:06:05;;;;;;;2.70;1.90;;;;;;;13.15;100.00;99877.32;105578;1254;73879;-67
2023/08/29 00:08:33;;;;;;;2.00;1.50;;;;;;;13.17;100.00;99883.84;105514;1253;83540;-67
2023/08/29 00:11:02;;;;;;;3.10;1.80;;;;;;;13.19;100.00;99903.05;105579;1256;72844;-67
2023/08/29 00:13:30;;;;;;;4.40;1.70;;;;;;;13.20;100.00;99927.23;105542;1256;69172;-68
2023/08/29 00:15:57;;;;;;;3.50;1.40;;;;;;;13.23;100.00;99953.56;105518;1257;69599;-68
2023/08/29 00:18:24;;;;;;;3.00;1.40;;;;;;;13.24;100.00;99974.36;105517;1256;74763;-68
2023/08/29 00:20:52;;;;;;;4.20;1.70;;;;;;;13.24;100.00;99987.69;105495;1254;83291;-68
2023/08/29 00:23:19;;;;;;;3.00;1.60;;;;;;;13.25;100.00;99999.73;105418;1254;73957;-68
2023/08/29 00:25:48;;;;;;;3.40;1.40;;;;;;;13.25;100.00;100006.77;105499;1257;69179;-68
2023/08/29 00:28:15;;;;;;;3.20;1.70;;;;;;;13.27;100.00;100001.56;105515;1256;69160;-68
2023/08/29 00:30:42;;;;;;;3.30;1.80;;;;;;;13.30;100.00;99995.27;105293;1257;72896;-70
2023/08/29 00:33:11;;;;;;;3.70;1.90;;;;;;;13.34;100.00;99980.34;105560;1256;83329;-70
2023/08/29 00:35:39;;;;;;;2.60;1.80;;;;;;;13.35;100.00;99964.29;105548;1254;72514;-70
2023/08/29 00:38:06;;;;;;;3.40;1.80;;;;;;;13.35;100.00;99947.25;105552;1256;69143;-70
2023/08/29 00:40:35;;;;;;;3.60;1.60;;;;;;;13.33;100.00;99909.81;105517;1256;69134;-70
2023/08/29 00:43:05;;;;;;;3.10;1.80;;;;;;;13.31;100.00;99878.20;105429;1258;74864;-70
2023/08/29 00:45:34;;;;;;;4.60;2.10;;;;;;;13.27;100.00;99870.00;105535;1257;83355;-70
2023/08/29 00:48:01;;;;;;;3.00;1.80;;;;;;;13.23;100.00;99853.54;105604;1254;73813;-70
2023/08/29 00:50:30;;;;;;;3.50;1.80;;;;;;;13.21;100.00;99859.92;105449;1257;69151;-70
2023/08/29 00:52:59;;;;;;;4.40;2.00;;;;;;;13.18;100.00;99869.42;105582;1256;69135;-71
2023/08/29 00:55:26;;;;;;;3.30;1.60;;;;;;;13.17;100.00;99885.60;105568;1257;74723;-71
2023/08/29 00:57:57;;;;;;;3.50;2.10;;;;;;;13.17;100.00;99895.77;105477;1256;82313;-71
2023/08/29 01:00:28;;;;;;;4.20;1.70;;;;;;;13.17;100.00;99898.02;105523;1254;73670;-72
2023/08/29 01:02:56;;;;;;;3.00;1.70;;;;;;;13.16;100.00;99889.14;105501;1254;69318;-72
2023/08/29 01:05:23;;;;;;;2.80;1.50;;;;;;;13.17;100.00;99891.91;105531;1256;69064;-72
2023/08/29 01:07:58;;;;;;;3.30;1.60;;;;;;;13.18;100.00;99892.57;105496;1257;74808;-72
2023/08/29 01:10:37;;;;;;;5.80;2.00;;;;;;;13.15;100.00;99890.42;105569;1254;83758;-71
2023/08/29 01:13:25;;;;;;;4.40;1.70;;;;;;;13.15;100.00;99899.59;105466;1254;73725;-69
2023/08/29 01:15:56;;;;;;;4.50;1.60;;;;;;;13.15;100.00;99923.40;105563;1256;69138;-68
2023/08/29 01:18:24;;;;;;;2.20;1.40;;;;;;;13.19;100.00;99940.92;105535;1254;69196;-68
2023/08/29 01:20:56;;;;;;;3.20;1.40;;;;;;;13.24;100.00;99952.42;105417;1257;73782;-68
2023/08/29 01:23:31;;;;;;;2.70;1.60;;;;;;;13.23;100.00;99951.58;105503;1256;83358;-67
2023/08/29 01:26:13;;;;;;;3.50;1.70;;;;;;;13.28;100.00;99952.23;105436;1253;72105;-67
2023/08/29 01:28:43;;;;;;;5.50;1.90;;;;;;;13.31;100.00;99952.79;105564;1256;69213;-68
2023/08/29 01:31:10;;;;;;;2.30;1.40;;;;;;;13.30;100.00;99930.52;105451;1254;69208;-68
2023/08/29 01:33:42;;;;;;;2.90;1.40;;;;;;;13.27;100.00;99913.85;105544;1254;73806;-67
2023/08/29 01:36:09;;;;;;;2.80;1.70;;;;;;;13.22;100.00;99920.94;105519;1254;82355;-68
2023/08/29 01:38:36;;;;;;;2.20;1.40;;;;;;;13.22;100.00;99922.55;105492;1253;72537;-67
2023/08/29 01:41:03;;;;;;;3.40;1.40;;;;;;;13.17;100.00;99906.80;105534;1253;69125;-68
2023/08/29 01:43:30;;;;;;;2.40;1.50;;;;;;;13.14;100.00;99901.02;105400;1254;69189;-69
2023/08/29 01:45:56;;;;;;;2.30;1.40;;;;;;;13.09;100.00;99887.27;105504;1256;74983;-68
2023/08/29 01:48:24;;;;;;;3.00;1.50;;;;;;;13.05;100.00;99879.96;105519;1256;83182;-68
2023/08/29 01:50:52;;;;;;;1.80;1.30;;;;;;;13.01;100.00;99885.63;105558;1254;72617;-68
2023/08/29 01:53:19;;;;;;;2.00;1.30;;;;;;;13.02;100.00;99888.90;105535;1254;69239;-68
2023/08/29 01:55:48;;;;;;;2.70;1.60;;;;;;;13.03;100.00;99882.21;105457;1253;69119;-68
2023/08/29 01:58:15;;;;;;;3.20;1.50;;;;;;;13.03;100.00;99875.36;105429;1257;74359;-67
2023/08/29 02:00:43;;;;;;;1.60;1.30;;;;;;;13.03;100.00;99862.55;105377;1260;83571;-67
2023/08/29 02:03:10;;;;;;;1.40;1.30;;;;;;;13.04;100.00;99832.33;105452;1257;73861;-68
2023/08/29 02:05:37;;;;;;;3.80;1.40;;;;;;;13.03;100.00;99802.05;105579;1256;69201;-68
2023/08/29 02:08:04;;;;;;;4.60;1.60;;;;;;;12.99;100.00;99779.80;105401;1254;69275;-68
2023/08/29 02:10:33;;;;;;;2.30;1.20;;;;;;;12.94;100.00;99753.91;105569;1256;73148;-68
2023/08/29 02:12:59;;;;;;;3.40;1.50;;;;;;;12.93;100.00;99727.56;105484;1256;82795;-68
2023/08/29 02:15:26;;;;;;;4.10;1.50;;;;;;;12.92;100.00;99685.99;105456;1253;73673;-68
2023/08/29 02:17:53;;;;;;;2.90;1.70;;;;;;;12.93;100.00;99648.80;105362;1254;69122;-68
2023/08/29 02:20:21;;;;;;;4.30;1.80;;;;;;;12.91;100.00;99635.74;105515;1253;69203;-68
2023/08/29 02:22:48;;;;;;;3.50;1.90;;;;;;;12.88;100.00;99612.05;105503;1254;73804;-68
2023/08/29 02:25:14;;;;;;;3.30;2.40;;;;;;;12.87;100.00;99577.12;105494;1254;82412;-68
2023/08/29 02:27:41;;;;;;;5.40;2.10;;;;;;;12.88;100.00;99547.75;105467;1256;72621;-67
2023/08/29 02:30:10;;;;;;;3.10;2.30;;;;;;;12.89;100.00;99498.58;105529;1254;69285;-68
2023/08/29 02:32:38;;;;;;;2.40;1.90;;;;;;;12.89;100.00;99461.11;105550;1256;69177;-67
2023/08/29 02:35:07;;;;;;;3.10;2.30;;;;;;;12.87;100.00;99501.55;105456;1254;75021;-68
2023/08/29 02:37:34;;;;;;;4.60;3.10;;;;;;;12.85;100.00;99568.63;105562;1254;83580;-68
2023/08/29 02:40:06;;;;;;;2.90;2.40;;;;;;;12.83;100.00;99611.67;105507;1256;73768;-68
2023/08/29 02:42:34;;;;;;;3.10;2.40;;;;;;;12.85;100.00;99640.54;105501;1254;69130;-68
2023/08/29 02:45:05;;;;;;;2.70;2.40;;;;;;;12.87;100.00;99681.96;105547;1256;69182;-67
2023/08/29 02:47:32;;;;;;;4.80;2.70;;;;;;;12.88;100.00;99698.67;105535;1254;75045;-67
2023/08/29 02:49:59;;;;;;;4.10;2.50;;;;;;;12.91;100.00;99686.63;105506;1256;83363;-67
2023/08/29 02:52:26;;;;;;;4.80;3.10;;;;;;;12.94;100.00;99671.68;105515;1254;73677;-67
2023/08/29 02:54:54;;;;;;;2.60;2.40;;;;;;;12.96;100.00;99647.57;105490;1254;69175;-67
2023/08/29 02:57:21;;;;;;;4.30;3.10;;;;;;;12.98;100.00;99633.27;105471;1254;69180;-67
2023/08/29 02:59:48;;;;;;;4.60;2.70;;;;;;;12.98;100.00;99638.14;105507;1254;73918;-66
2023/08/29 03:02:14;;;;;;;2.50;2.30;;;;;;;12.99;100.00;99634.08;105512;1256;83286;-66
2023/08/29 03:04:42;;;;;;;3.50;2.80;;;;;;;12.99;100.00;99624.42;105461;1254;72620;-67
2023/08/29 03:07:09;;;;;;;2.70;2.50;;;;;;;12.99;100.00;99600.57;105465;1254;69145;-66
2023/08/29 03:09:36;;;;;;;5.50;2.80;;;;;;;12.99;100.00;99600.77;105484;1254;69624;-66
2023/08/29 03:12:04;;;;;;;2.90;2.70;;;;;;;12.99;100.00;99615.14;105472;1254;74993;-66
2023/08/29 03:14:32;;;;;;;3.50;2.80;;;;;;;13.01;100.00;99605.52;105537;1256;83116;-66
2023/08/29 03:16:59;;;;;;;4.70;3.10;;;;;;;13.02;100.00;99592.48;105415;1253;72656;-66
2023/08/29 03:19:26;;;;;;;3.10;2.60;;;;;;;13.02;100.00;99588.13;105450;1254;69198;-66
2023/08/29 03:21:53;;;;;;;4.00;2.60;;;;;;;13.04;100.00;99591.52;105404;1253;70523;-66
2023/08/29 03:24:20;;;;;;;3.90;3.00;;;;;;;13.04;100.00;99591.82;105416;1257;73790;-66
2023/08/29 03:26:47;;;;;;;4.50;3.40;;;;;;;13.05;100.00;99600.06;105399;1257;83149;-66
2023/08/29 03:29:14;;;;;;;3.90;3.00;;;;;;;13.06;100.00;99594.21;105475;1254;71599;-66
2023/08/29 03:31:41;;;;;;;5.30;3.10;;;;;;;13.08;100.00;99570.56;105538;1253;69070;-66
2023/08/29 03:34:08;;;;;;;4.20;3.30;;;;;;;13.09;100.00;99555.42;105470;1254;69148;-66
2023/08/29 03:36:36;;;;;;;3.10;2.80;;;;;;;13.11;100.00;99564.63;105479;1254;75033;-66
2023/08/29 03:39:03;;;;;;;3.50;2.60;;;;;;;13.13;100.00;99569.20;105516;1254;83454;-66
2023/08/29 03:41:30;;;;;;;3.60;3.10;;;;;;;13.17;100.00;99569.34;105524;1254;74064;-66
2023/08/29 03:43:57;;;;;;;3.40;3.10;;;;;;;13.18;100.00;99564.15;105545;1254;69042;-66
2023/08/29 03:46:24;;;;;;;5.10;3.30;;;;;;;13.19;100.00;99569.88;105496;1254;69068;-66
2023/08/29 03:48:51;;;;;;;3.70;2.90;;;;;;;13.21;100.00;99579.77;105556;1256;74991;-66
2023/08/29 03:51:18;;;;;;;3.50;3.20;;;;;;;13.24;100.00;99585.22;105552;1256;83742;-66
2023/08/29 03:53:45;;;;;;;3.30;3.00;;;;;;;13.28;100.00;99583.97;105496;1253;72696;-66
2023/08/29 03:56:13;;;;;;;3.40;3.10;;;;;;;13.30;100.00;99584.01;105508;1253;69200;-66
2023/08/29 03:58:41;;;;;;;4.00;3.30;;;;;;;13.32;100.00;99591.62;105504;1256;69185;-66
2023/08/29 04:01:11;;;;;;;3.80;3.00;;;;;;;13.34;100.00;99588.82;105558;1254;74869;-61
2023/08/29 04:03:38;;;;;;;4.50;3.60;;;;;;;13.39;100.00;99577.12;105671;1256;83161;-64
2023/08/29 04:06:06;;;;;;;4.40;3.70;;;;;;;13.41;100.00;99554.02;105731;1254;72628;-65
2023/08/29 04:08:33;;;;;;;4.90;3.70;;;;;;;13.42;100.00;99536.58;105565;1254;69070;-64
2023/08/29 04:11:03;;;;;;;4.10;3.40;;;;;;;13.42;100.00;99539.23;105626;1256;69179;-66
2023/08/29 04:13:30;;;;;;;4.10;3.80;;;;;;;13.42;100.00;99532.05;105681;1253;73873;-66
2023/08/29 04:16:03;;;;;;;6.80;4.20;;;;;;;13.42;100.00;99525.04;105619;1254;83867;-66
2023/08/29 04:18:32;;;;;;;4.60;3.20;;;;;;;13.43;100.00;99541.42;105734;1254;72596;-66
2023/08/29 04:20:59;;;;;;;3.60;3.00;;;;;;;13.46;100.00;99540.86;105665;1254;69084;-67
2023/08/29 04:23:26;;;;;;;4.40;3.40;;;;;;;13.47;100.00;99546.42;105769;1253;69510;-67
2023/08/29 04:25:58;;;;;;;3.80;3.50;;;;;;;13.49;100.00;99560.34;105604;1256;74126;-67
2023/08/29 04:28:26;;;;;;;3.30;3.00;;;;;;;13.51;100.00;99560.08;105730;1255;83327;-67
2023/08/29 04:30:54;;;;;;;3.70;3.20;;;;;;;13.51;100.00;99551.80;105738;1257;73043;-64
2023/08/29 04:33:21;;;;;;;3.90;3.50;;;;;;;13.52;100.00;99540.52;105611;1252;69787;-65
2023/08/29 04:35:51;;;;;;;3.30;3.00;;;;;;;13.52;100.00;99541.77;105687;1254;69208;-65
2023/08/29 04:38:18;;;;;;;4.60;3.40;;;;;;;13.51;100.00;99544.64;105648;1254;73657;-65
2023/08/29 04:40:45;;;;;;;3.80;3.20;;;;;;;13.51;100.00;99555.34;105670;1254;82677;-65
2023/08/29 04:43:12;;;;;;;3.60;3.10;;;;;;;13.51;100.00;99557.59;105592;1256;73615;-65
2023/08/29 04:45:40;;;;;;;3.80;3.30;;;;;;;13.52;100.00;99561.04;105658;1256;69302;-65
2023/08/29 04:48:07;;;;;;;3.70;3.30;;;;;;;13.53;100.00;99567.17;105625;1257;69136;-66
2023/08/29 04:50:35;;;;;;;3.40;3.10;;;;;;;13.54;100.00;99576.20;105817;1253;75013;-65
2023/08/29 04:53:03;;;;;;;3.50;3.20;;;;;;;13.54;100.00;99590.23;105577;1254;82464;-67
2023/08/29 04:55:30;;;;;;;4.00;3.40;;;;;;;13.54;100.00;99607.23;105675;1254;72851;-66
2023/08/29 04:57:58;;;;;;;3.30;3.00;;;;;;;13.57;100.00;99607.95;105579;1255;69022;-66
2023/08/29 05:00:25;;;;;;;4.80;3.20;;;;;;;13.59;100.00;99635.34;105800;1254;69198;-67
2023/08/29 05:02:52;;;;;;;3.90;3.00;;;;;;;13.62;100.00;99648.55;105734;1254;74954;-69
2023/08/29 05:05:19;;;;;;;4.30;3.40;;;;;;;13.64;100.00;99662.45;105688;1256;83285;-65
2023/08/29 05:07:46;;;;;;;4.40;3.00;;;;;;;13.67;100.00;99675.11;105579;1252;73632;-65
2023/08/29 05:10:13;;;;;;;6.00;3.30;;;;;;;13.70;100.00;99687.77;105496;1257;69163;-68
2023/08/29 05:12:41;;;;;;;4.30;3.30;;;;;;;13.70;100.00;99704.23;105547;1254;69052;-70
2023/08/29 05:15:08;;;;;;;3.50;3.20;;;;;;;13.72;100.00;99720.06;105551;1256;74101;-69
2023/08/29 05:17:36;;;;;;;3.90;3.50;;;;;;;13.76;100.00;99729.14;105611;1254;81428;-68
2023/08/29 05:20:04;;;;;;;3.40;3.10;;;;;;;13.80;100.00;99721.90;105476;1254;72673;-69
2023/08/29 05:22:31;;;;;;;3.70;3.30;;;;;;;13.82;100.00;99720.35;105513;1254;69167;-69
2023/08/29 05:24:58;;;;;;;4.20;2.70;;;;;;;13.84;100.00;99719.67;105571;1256;69166;-69
2023/08/29 05:27:25;;;;;;;3.60;3.00;;;;;;;13.86;100.00;99714.51;105600;1254;73816;-68
2023/08/29 05:29:52;;;;;;;3.40;3.10;;;;;;;13.88;100.00;99710.67;105667;1255;83248;-68
2023/08/29 05:32:19;;;;;;;5.10;3.20;;;;;;;13.89;100.00;99695.14;105594;1256;73749;-69
2023/08/29 05:34:46;;;;;;;4.00;3.60;;;;;;;13.91;100.00;99690.85;105599;1252;69198;-69
2023/08/29 05:37:12;;;;;;;4.60;3.50;;;;;;;13.88;100.00;99687.16;105593;1256;69170;-68
2023/08/29 05:39:39;;;;;;;3.80;3.50;;;;;;;13.89;100.00;99691.86;105600;1254;73922;-68
2023/08/29 05:42:06;;;;;;;3.80;3.50;;;;;;;13.93;100.00;99685.47;105567;1254;82290;-68
2023/08/29 05:44:33;;;;;;;5.10;3.90;;;;;;;13.94;100.00;99679.04;105548;1253;72567;-68
2023/08/29 05:47:00;;;;;;;4.20;3.80;;;;;;;13.96;100.00;99669.80;105627;1254;69102;-69
2023/08/29 05:49:27;;;;;;;5.90;4.00;;;;;;;13.98;100.00;99666.13;105658;1252;69189;-69
2023/08/29 05:51:54;;;;;;;4.00;3.60;;;;;;;13.98;100.00;99657.34;105655;1252;73942;-68
2023/08/29 05:54:21;;;;;;;4.90;3.70;;;;;;;13.99;100.00;99653.23;105543;1254;82300;-69
2023/08/29 05:56:48;;;;;;;4.70;4.10;;;;;;;14.00;100.00;99637.88;105658;1254;72687;-68
2023/08/29 05:59:15;;;;;;;4.30;3.70;;;;;;;14.01;100.00;99620.09;105561;1253;69169;-69
2023/08/29 06:01:42;;;;;;;7.30;3.90;;;;;;;14.00;100.00;99598.39;105542;1254;69169;-68
2023/08/29 06:04:09;;;;;;;4.20;3.80;;;;;;;13.99;100.00;99583.88;105589;1254;74038;-68
2023/08/29 06:06:39;;;;;;;4.10;3.60;;;;;;;13.98;100.00;99575.52;105555;1255;83675;-68
2023/08/29 06:09:10;;;;;;;4.00;3.40;;;;;;;13.97;100.00;99563.31;105612;1254;72560;-68
2023/08/29 06:11:37;;;;;;;3.80;3.30;;;;;;;13.96;100.00;99551.80;105600;1252;69104;-68
2023/08/29 06:14:04;;;;;;;4.00;3.60;;;;;;;13.95;100.00;99555.17;105605;1256;69254;-68
2023/08/29 06:16:31;;;;;;;3.80;3.40;;;;;;;13.94;100.00;99559.63;105611;1254;74651;-69
2023/08/29 06:18:58;;;;;;;4.00;3.20;;;;;;;13.95;100.00;99562.18;105597;1254;82231;-69
2023/08/29 06:21:25;;;;;;;4.10;3.40;;;;;;;13.97;100.00;99554.88;105610;1252;73742;-69
2023/08/29 06:23:52;;;;;;;3.40;2.90;;;;;;;13.98;100.00;99540.58;105668;1254;69085;-69
2023/08/29 06:26:19;;;;;;;3.30;3.00;;;;;;;13.97;100.00;99529.38;105543;1256;69164;-69
2023/08/29 06:28:47;;;;;;;3.80;3.20;;;;;;;13.96;100.00;99530.85;105641;1254;74875;-69
2023/08/29 06:31:14;;;;;;;3.90;3.50;;;;;;;13.94;100.00;99540.84;105552;1254;83199;-69
2023/08/29 06:33:41;;;;;;;3.80;3.40;;;;;;;13.91;100.00;99543.10;105569;1254;74283;-68
2023/08/29 06:36:08;;;;;;;4.30;3.30;;;;;;;13.92;100.00;99548.71;105612;1252;69182;-68
2023/08/29 06:38:36;;;;;;;4.00;3.60;;;;;;;13.93;100.00;99566.55;105606;1257;69192;-69
2023/08/29 06:41:04;;;;;;;4.40;3.60;;;;;;;13.93;100.00;99580.02;105552;1256;73745;-69
2023/08/29 06:43:31;;;;;;;4.40;3.60;;;;;;;13.95;100.00;99592.61;105611;1254;82296;-69
2023/08/29 06:45:58;;;;;;;4.60;3.70;;;;;;;13.96;100.00;99601.45;105575;1253;72640;-68
2023/08/29 06:48:25;;;;;;;3.80;3.40;;;;;;;13.96;100.00;99607.77;105597;1254;69065;-69
2023/08/29 06:50:53;;;;;;;4.00;3.60;;;;;;;13.98;100.00;99621.67;105681;1254;69195;-69
2023/08/29 06:53:20;;;;;;;3.90;3.40;;;;;;;14.00;100.00;99633.52;105551;1256;73881;-69
2023/08/29 06:55:46;;;;;;;4.30;3.90;;;;;;;14.03;100.00;99639.30;105589;1254;81515;-69
2023/08/29 06:58:14;;;;;;;3.90;3.50;;;;;;;14.08;100.00;99640.77;105576;1256;73661;-69
2023/08/29 07:00:40;;;;;;;5.50;3.90;;;;;;;14.09;100.00;99636.28;105574;1256;69071;-69
2023/08/29 07:03:08;;;;;;;4.70;3.90;;;;;;;14.10;100.00;99630.98;105601;1256;69224;-69
2023/08/29 07:05:36;;;;;;;4.80;3.60;;;;;;;14.11;100.00;99634.45;105637;1254;74703;-68
2023/08/29 07:08:04;;;;;;;6.20;3.60;;;;;;;14.10;100.00;99638.49;105507;1257;83392;-69
2023/08/29 07:10:31;;;;;;;4.90;3.40;;;;;;;14.12;100.00;99637.69;105595;1254;72660;-69
2023/08/29 07:12:58;;;;;;;5.10;4.00;;;;;;;14.16;100.00;99636.37;105549;1255;69085;-69
2023/08/29 07:15:25;;;;;;;5.10;4.50;;;;;;;14.18;100.00;99623.08;105640;1256;69291;-69
2023/08/29 07:17:53;;;;;;;5.70;4.10;;;;;;;14.19;100.00;99610.55;105575;1255;74856;-69
2023/08/29 07:20:21;;;;;;;5.00;4.10;;;;;;;14.21;100.00;99598.46;105619;1254;82484;-69
2023/08/29 07:22:48;;;;;;;6.50;4.20;;;;;;;14.23;100.00;99596.74;105635;1255;73073;-69
2023/08/29 07:25:17;;;;;;;5.90;3.80;;;;;;;14.26;100.00;99597.63;105575;1254;69164;-69
2023/08/29 07:27:44;;;;;;;4.60;4.10;;;;;;;14.27;100.00;99600.33;105651;1255;69201;-69
2023/08/29 07:30:14;;;;;;;5.00;4.10;;;;;;;14.30;100.00;99598.21;105587;1253;74947;-69
2023/08/29 07:32:44;;;;;;;5.10;4.60;;;;;;;14.32;100.00;99600.52;105587;1256;83553;-69
2023/08/29 07:35:11;;;;;;;5.40;4.20;;;;;;;14.35;100.00;99607.04;105674;1255;73726;-69
2023/08/29 07:37:37;;;;;;;4.00;3.60;;;;;;;14.37;100.00;99615.39;105556;1254;69178;-69
2023/08/29 07:40:05;;;;;;;5.50;4.20;;;;;;;14.41;100.00;99613.88;105544;1257;69188;-69
2023/08/29 07:42:32;;;;;;;4.90;4.40;;;;;;;14.42;100.00;99613.96;105644;1254;73780;-70
2023/08/29 07:44:59;;;;;;;4.80;4.30;;;;;;;14.42;100.00;99614.66;105619;1256;83445;-69
2023/08/29 07:47:27;;;;;;;5.40;4.90;;;;;;;14.43;100.00;99615.81;105598;1254;73628;-70
2023/08/29 07:49:54;;;;;;;6.70;4.40;;;;;;;14.44;100.00;99612.93;105631;1252;69099;-69
2023/08/29 07:52:20;;;;;;;5.40;4.00;;;;;;;14.47;100.00;99611.13;105589;1257;69217;-69
2023/08/29 07:54:47;;;;;;;7.50;4.30;;;;;;;14.49;100.00;99605.77;105599;1254;73678;-70
2023/08/29 07:57:14;;;;;;;5.40;4.20;;;;;;;14.50;100.00;99604.29;105397;1255;293420;-70
2023/08/29 07:59:41;;;;;;;5.00;4.40;;;;;;;14.54;100.00;99605.52;105552;1255;72096;-69
2023/08/29 08:02:08;;;;;;;5.60;4.80;;;;;;;14.56;100.00;99618.51;105644;1255;69166;-70
2023/08/29 08:04:36;;;;;;;6.10;4.50;;;;;;;14.59;100.00;99623.41;105579;1256;69084;-70
2023/08/29 08:07:03;;;;;;;5.70;5.00;;;;;;;14.63;100.00;99618.57;105611;1252;74696;-70
2023/08/29 08:09:31;;;;;;;5.30;4.80;;;;;;;14.67;100.00;99621.31;105586;1254;82466;-70
2023/08/29 08:12:00;;;;;;;8.40;4.90;;;;;;;14.71;100.00;99615.22;105501;1253;72596;-70
2023/08/29 08:14:27;;;;;;;5.50;5.00;;;;;;;14.78;100.00;99604.04;105617;1252;69630;-70
2023/08/29 08:16:54;;;;;;;6.10;5.10;;;;;;;14.88;100.00;99604.45;105689;1254;69205;-70
2023/08/29 08:19:21;;;;;;;5.40;4.80;;;;;;;14.96;100.00;99615.86;105572;1256;73785;-70
2023/08/29 08:21:48;;;;;;;5.60;5.10;;;;;;;14.99;100.00;99618.13;105662;1254;82387;-70
2023/08/29 08:24:17;;;;;;;6.80;5.30;;;;;;;15.01;100.00;99611.84;105590;1255;73547;-70
2023/08/29 08:26:44;;;;;;;7.00;5.20;;;;;;;15.03;100.00;99626.26;105615;1254;69182;-70
2023/08/29 08:29:11;;;;;;;5.00;4.50;;;;;;;15.05;100.00;99641.14;105563;1255;69156;-70
2023/08/29 08:31:38;;;;;;;5.70;5.20;;;;;;;15.06;100.00;99637.38;105563;1256;75093;-70
2023/08/29 08:34:05;;;;;;;5.40;4.90;;;;;;;15.06;100.00;99640.66;105618;1254;82180;-70
2023/08/29 08:36:32;;;;;;;5.50;4.80;;;;;;;15.07;100.00;99646.09;105527;1254;72617;-70
2023/08/29 08:38:59;;;;;;;7.90;5.30;;;;;;;15.07;100.00;99646.98;105556;1254;69167;-70
2023/08/29 08:41:26;;;;;;;6.00;5.20;;;;;;;15.05;100.00;99651.33;105557;1256;69240;-70
2023/08/29 08:43:55;;;;;;;6.10;5.50;;;;;;;15.03;100.00;99661.67;105604;1254;75044;-70
2023/08/29 08:46:22;;;;;;;6.20;4.90;;;;;;;15.03;100.00;99663.27;105604;1254;82652;-70
2023/08/29 08:48:49;;;;;;;5.60;5.00;;;;;;;15.02;100.00;99664.91;105652;1254;71678;-70
2023/08/29 08:51:19;;;;;;;5.50;5.00;;;;;;;15.04;100.00;99665.45;105568;1253;69074;-70
2023/08/29 08:53:47;;;;;;;6.40;5.40;;;;;;;15.07;100.00;99660.49;105581;1255;69000;-70
2023/08/29 08:56:14;;;;;;;6.40;5.00;;;;;;;15.08;100.00;99661.65;105591;1257;74765;-70
2023/08/29 08:58:41;;;;;;;5.00;4.50;;;;;;;15.10;100.00;99662.92;105521;1254;82217;-70
2023/08/29 09:01:08;;;;;;;5.60;4.80;;;;;;;15.12;100.00;99659.09;105596;1255;73533;-71
2023/08/29 09:03:35;;;;;;;5.40;4.90;;;;;;;15.16;100.00;99648.26;105625;1255;69185;-70
2023/08/29 09:06:02;;;;;;;6.60;5.20;;;;;;;15.23;100.00;99640.78;105573;1256;69190;-71
2023/08/29 09:08:31;;;;;;;7.60;5.40;;;;;;;15.29;100.00;99637.52;105622;1254;74912;-71
2023/08/29 09:11:01;;;;;;;5.60;5.00;;;;;;;15.37;100.00;99638.56;105543;1254;83641;-70
2023/08/29 09:13:29;;;;;;;7.10;5.10;;;;;;;15.43;100.00;99638.86;105606;1256;73754;-70
2023/08/29 09:16:01;;;;;;;5.20;4.70;;;;;;;15.48;100.00;99639.76;105722;1256;69510;-71
2023/08/29 09:18:31;;;;;;;5.50;4.90;;;;;;;15.52;100.00;99639.63;105497;1253;69162;-71
2023/08/29 09:21:00;;;;;;;5.40;4.90;;;;;;;15.55;100.00;99631.88;105579;1254;72821;-70
2023/08/29 09:23:29;;;;;;;6.60;4.90;;;;;;;15.59;100.00;99633.00;105625;1257;82850;-70
2023/08/29 09:25:59;;;;;;;6.90;4.60;;;;;;;15.64;100.00;99635.48;105605;1256;72387;-70
2023/08/29 09:28:27;;;;;;;6.70;5.20;;;;;;;15.67;100.00;99639.45;105545;1253;69416;-70
2023/08/29 09:30:56;;;;;;;5.60;4.30;;;;;;;15.69;100.00;99645.33;105613;1255;69210;-70
2023/08/29 09:33:23;;;;;;;4.90;4.30;;;;;;;15.70;100.00;99652.70;105533;1254;73689;-69
2023/08/29 09:35:50;;;;;;;6.20;4.60;;;;;;;15.72;100.00;99652.18;105561;1255;82467;-69
2023/08/29 09:38:18;;;;;;;6.70;4.70;;;;;;;15.73;100.00;99661.63;105552;1254;72859;-67
2023/08/29 09:40:46;;;;;;;6.90;4.80;;;;;;;15.75;100.00;99657.65;105602;1257;69215;-71
2023/08/29 09:43:17;;;;;;;5.70;4.80;;;;;;;15.77;100.00;99656.98;105578;1254;69187;-68
2023/08/29 09:45:54;;;;;;;5.60;4.70;;;;;;;15.75;100.00;99652.48;105604;1254;73777;-67
2023/08/29 09:48:22;;;;;;;5.90;4.60;;;;;;;15.74;100.00;99648.15;105615;1256;82525;-65
2023/08/29 09:50:50;;;;;;;5.30;4.10;;;;;;;15.73;100.00;99643.52;105583;1254;72723;-67
2023/08/29 09:53:19;;;;;;;8.00;4.80;;;;;;;15.72;100.00;99631.91;105525;1254;69076;-67
2023/08/29 09:55:49;;;;;;;7.40;5.30;;;;;;;15.73;100.00;99621.13;105604;1254;69176;-67
2023/08/29 09:58:17;;;;;;;6.00;5.00;;;;;;;15.76;100.00;99617.60;105528;1254;73772;-67
2023/08/29 10:00:45;;;;;;;6.60;4.60;;;;;;;15.79;100.00;99620.52;105615;1254;82455;-67
2023/08/29 10:03:12;;;;;;;5.20;4.70;;;;;;;15.82;100.00;99619.44;105650;1254;73530;-65
2023/08/29 10:05:44;;;;;;;8.30;4.50;;;;;;;15.85;100.00;99620.48;105595;1255;69193;-65
2023/08/29 10:08:11;;;;;;;6.40;4.60;;;;;;;15.91;100.00;99619.46;105605;1256;69202;-64
2023/08/29 10:10:42;;;;;;;5.40;4.60;;;;;;;15.96;100.00;99618.65;105540;1254;73862;-64
2023/08/29 10:13:11;;;;;;;5.50;4.50;;;;;;;15.95;100.00;99611.08;105596;1256;83460;-65
2023/08/29 10:15:42;;;;;;;4.80;4.20;;;;;;;15.94;100.00;99604.44;105612;1257;72632;-64
2023/08/29 10:18:10;;;;;;;7.60;4.90;;;;;;;16.02;100.00;99611.10;105575;1256;69205;-66
2023/08/29 10:20:39;;;;;;;5.50;4.80;;;;;;;16.07;100.00;99617.27;105580;1256;69179;-65
2023/08/29 10:23:07;;;;;;;8.50;4.90;;;;;;;16.09;100.00;99598.63;105612;1256;75041;-65
2023/08/29 10:25:36;;;;;;;7.30;4.80;;;;;;;16.20;100.00;99593.08;105554;1254;83406;-65
2023/08/29 10:28:04;;;;;;;8.10;4.80;;;;;;;16.29;100.00;99594.16;105652;1256;74128;-65
2023/08/29 10:30:32;;;;;;;5.80;4.70;;;;;;;16.31;100.00;99588.23;105592;1254;69169;-66
2023/08/29 10:33:01;;;;;;;6.90;4.80;;;;;;;16.28;100.00;99591.55;105562;1257;69158;-65
2023/08/29 10:35:31;;;;;;;5.60;4.90;;;;;;;16.24;100.00;99607.02;105676;1256;73785;-65
2023/08/29 10:38:07;;;;;;;6.30;4.30;;;;;;;16.20;100.00;99619.72;105646;1257;83253;-65
2023/08/29 10:40:39;;;;;;;7.20;4.20;;;;;;;16.17;100.00;99620.61;105565;1254;73839;-66
2023/08/29 10:43:20;;;;;;;6.50;4.90;;;;;;;16.14;100.00;99620.69;105610;1256;69255;-60
2023/08/29 10:45:59;;;;;;;6.50;4.70;;;;;;;16.11;100.00;99620.17;105639;1255;69182;-60
2023/08/29 10:48:30;;;;;;;5.60;5.00;;;;;;;16.08;100.00;99625.87;105627;1256;74898;-60
2023/08/29 10:51:21;;;;;;;6.70;4.90;;;;;;;16.07;100.00;99635.58;105577;1256;83280;-60
2023/08/29 10:53:53;;;;;;;5.60;4.90;;;;;;;16.05;100.00;99638.53;105606;1254;73676;-60
2023/08/29 10:56:24;;;;;;;6.30;4.90;;;;;;;15.99;100.00;99640.95;105613;1256;69211;-60
2023/08/29 10:58:55;;;;;;;6.00;5.40;;;;;;;15.93;100.00;99641.54;105607;1256;69211;-60
2023/08/29 11:01:28;;;;;;;6.80;5.10;;;;;;;15.91;100.00;99644.55;105511;1254;74995;-60
2023/08/29 11:03:56;;;;;;;6.10;5.50;;;;;;;15.83;100.00;99640.48;105570;1257;83144;-60
2023/08/29 11:06:25;;;;;;;8.20;5.70;;;;;;;15.76;100.00;99638.36;105604;1254;72764;-60
2023/08/29 11:09:20;;;;;;;9.30;6.30;;;;;;;15.71;100.00;99638.86;105616;1252;69064;-60
2023/08/29 11:12:07;;;;;;;6.90;5.60;;;;;;;15.71;100.00;99635.02;105619;1256;69183;-60
2023/08/29 11:14:50;;;;;;;6.50;5.30;;;;;;;15.68;100.00;99628.66;105627;1254;73893;-60
2023/08/29 11:17:23;;;;;;;6.10;5.50;;;;;;;15.65;100.00;99627.34;105599;1256;83289;-60
2023/08/29 11:19:57;;;;;;;8.80;5.50;;;;;;;15.62;100.00;99625.02;105580;1254;72584;-60
2023/08/29 11:22:28;;;;;;;7.90;5.60;;;;;;;15.59;100.00;99634.71;105571;1256;69300;-60